sensor_id;sensor_type;location;lat;lon;timestamp;P1;durP1;ratioP1;P2;durP2;ratioP2
32196;SDS011;18697;42.770;23.400;2024-03-02T00:01:57;49.58;;;27.30;;
32196;SDS011;18697;42.770;23.400;2024-03-02T00:04:23;51.30;;;26.90;;
32196;SDS011;18697;42.770;23.400;2024-03-02T00:06:51;46.65;;;25.98;;
32196;SDS011;18697;42.770;23.400;2024-03-02T00:09:19;54.00;;;26.75;;
32196;SDS011;18697;42.770;23.400;2024-03-02T00:11:45;60.35;;;27.67;;
32196;SDS011;18697;42.770;23.400;2024-03-02T00:14:10;52.70;;;26.08;;
32196;SDS011;18697;42.770;23.400;2024-03-02T00:16:36;52.65;;;27.48;;
32196;SDS011;18697;42.770;23.400;2024-03-02T00:19:02;61.22;;;27.92;;
32196;SDS011;18697;42.770;23.400;2024-03-02T00:21:29;51.38;;;26.77;;
32196;SDS011;18697;42.770;23.400;2024-03-02T00:23:56;53.65;;;28.48;;
32196;SDS011;18697;42.770;23.400;2024-03-02T00:26:21;52.20;;;27.38;;
32196;SDS011;18697;42.770;23.400;2024-03-02T00:28:47;50.58;;;27.38;;
32196;SDS011;18697;42.770;23.400;2024-03-02T00:31:15;52.15;;;26.88;;
32196;SDS011;18697;42.770;23.400;2024-03-02T00:33:45;49.88;;;26.27;;
32196;SDS011;18697;42.770;23.400;2024-03-02T00:36:12;52.85;;;25.90;;
32196;SDS011;18697;42.770;23.400;2024-03-02T00:38:48;54.87;;;26.17;;
32196;SDS011;18697;42.770;23.400;2024-03-02T00:41:30;52.83;;;26.35;;
32196;SDS011;18697;42.770;23.400;2024-03-02T00:49:00;54.33;;;28.83;;
32196;SDS011;18697;42.770;23.400;2024-03-02T00:51:28;48.65;;;26.23;;
32196;SDS011;18697;42.770;23.400;2024-03-02T00:53:55;55.35;;;26.98;;
32196;SDS011;18697;42.770;23.400;2024-03-02T00:56:23;53.08;;;28.58;;
32196;SDS011;18697;42.770;23.400;2024-03-02T00:58:49;46.70;;;25.55;;
32196;SDS011;18697;42.770;23.400;2024-03-02T01:01:15;49.20;;;24.85;;
32196;SDS011;18697;42.770;23.400;2024-03-02T01:03:41;52.78;;;25.42;;
32196;SDS011;18697;42.770;23.400;2024-03-02T01:06:07;46.30;;;25.10;;
32196;SDS011;18697;42.770;23.400;2024-03-02T01:08:34;57.25;;;27.45;;
32196;SDS011;18697;42.770;23.400;2024-03-02T01:11:00;48.90;;;25.67;;
32196;SDS011;18697;42.770;23.400;2024-03-02T01:13:25;53.08;;;25.90;;
32196;SDS011;18697;42.770;23.400;2024-03-02T01:15:51;54.38;;;29.13;;
32196;SDS011;18697;42.770;23.400;2024-03-02T01:18:16;61.88;;;29.50;;
32196;SDS011;18697;42.770;23.400;2024-03-02T01:20:42;44.20;;;24.70;;
32196;SDS011;18697;42.770;23.400;2024-03-02T01:23:07;44.45;;;24.85;;
32196;SDS011;18697;42.770;23.400;2024-03-02T01:25:33;55.60;;;27.55;;
32196;SDS011;18697;42.770;23.400;2024-03-02T01:27:59;54.53;;;26.67;;
32196;SDS011;18697;42.770;23.400;2024-03-02T01:30:25;56.92;;;27.75;;
32196;SDS011;18697;42.770;23.400;2024-03-02T01:32:50;56.20;;;28.75;;
32196;SDS011;18697;42.770;23.400;2024-03-02T01:35:16;65.20;;;30.67;;
32196;SDS011;18697;42.770;23.400;2024-03-02T01:37:41;52.17;;;27.90;;
32196;SDS011;18697;42.770;23.400;2024-03-02T01:40:07;53.47;;;28.60;;
32196;SDS011;18697;42.770;23.400;2024-03-02T01:42:37;61.35;;;29.60;;
32196;SDS011;18697;42.770;23.400;2024-03-02T01:45:07;52.03;;;25.77;;
32196;SDS011;18697;42.770;23.400;2024-03-02T01:47:33;49.17;;;27.05;;
32196;SDS011;18697;42.770;23.400;2024-03-02T01:49:59;48.08;;;25.50;;
32196;SDS011;18697;42.770;23.400;2024-03-02T01:52:25;50.38;;;26.73;;
32196;SDS011;18697;42.770;23.400;2024-03-02T01:54:51;63.35;;;31.50;;
32196;SDS011;18697;42.770;23.400;2024-03-02T01:57:17;61.97;;;31.90;;
32196;SDS011;18697;42.770;23.400;2024-03-02T01:59:42;50.90;;;26.65;;
32196;SDS011;18697;42.770;23.400;2024-03-02T02:02:08;52.42;;;26.35;;
32196;SDS011;18697;42.770;23.400;2024-03-02T02:04:33;45.80;;;26.33;;
32196;SDS011;18697;42.770;23.400;2024-03-02T02:06:59;50.40;;;26.50;;
32196;SDS011;18697;42.770;23.400;2024-03-02T02:09:25;55.65;;;29.63;;
32196;SDS011;18697;42.770;23.400;2024-03-02T02:11:50;60.20;;;30.65;;
32196;SDS011;18697;42.770;23.400;2024-03-02T02:14:16;50.47;;;26.00;;
32196;SDS011;18697;42.770;23.400;2024-03-02T02:16:41;52.83;;;27.23;;
32196;SDS011;18697;42.770;23.400;2024-03-02T02:19:07;51.28;;;26.77;;
32196;SDS011;18697;42.770;23.400;2024-03-02T02:21:33;48.15;;;25.63;;
32196;SDS011;18697;42.770;23.400;2024-03-02T02:23:58;49.78;;;26.15;;
32196;SDS011;18697;42.770;23.400;2024-03-02T02:26:24;46.88;;;25.48;;
32196;SDS011;18697;42.770;23.400;2024-03-02T02:28:49;50.10;;;26.30;;
32196;SDS011;18697;42.770;23.400;2024-03-02T02:31:15;49.47;;;25.92;;
32196;SDS011;18697;42.770;23.400;2024-03-02T02:33:41;44.85;;;24.85;;
32196;SDS011;18697;42.770;23.400;2024-03-02T02:36:06;46.90;;;25.45;;
32196;SDS011;18697;42.770;23.400;2024-03-02T02:38:36;49.88;;;27.73;;
32196;SDS011;18697;42.770;23.400;2024-03-02T02:41:05;65.28;;;33.35;;
32196;SDS011;18697;42.770;23.400;2024-03-02T02:43:31;69.93;;;33.47;;
32196;SDS011;18697;42.770;23.400;2024-03-02T02:45:56;68.05;;;35.30;;
32196;SDS011;18697;42.770;23.400;2024-03-02T02:48:22;58.25;;;32.70;;
32196;SDS011;18697;42.770;23.400;2024-03-02T02:50:47;59.05;;;33.25;;
32196;SDS011;18697;42.770;23.400;2024-03-02T02:53:12;47.95;;;27.67;;
32196;SDS011;18697;42.770;23.400;2024-03-02T02:55:39;48.88;;;24.80;;
32196;SDS011;18697;42.770;23.400;2024-03-02T02:58:08;51.58;;;27.02;;
32196;SDS011;18697;42.770;23.400;2024-03-02T03:00:33;50.90;;;28.55;;
32196;SDS011;18697;42.770;23.400;2024-03-02T03:02:58;54.70;;;28.38;;
32196;SDS011;18697;42.770;23.400;2024-03-02T03:05:24;58.20;;;29.30;;
32196;SDS011;18697;42.770;23.400;2024-03-02T03:07:49;55.65;;;28.27;;
32196;SDS011;18697;42.770;23.400;2024-03-02T03:10:15;52.13;;;28.10;;
32196;SDS011;18697;42.770;23.400;2024-03-02T03:12:41;46.40;;;24.83;;
32196;SDS011;18697;42.770;23.400;2024-03-02T03:15:10;43.80;;;24.30;;
32196;SDS011;18697;42.770;23.400;2024-03-02T03:17:36;46.15;;;25.45;;
32196;SDS011;18697;42.770;23.400;2024-03-02T03:20:02;46.63;;;24.60;;
32196;SDS011;18697;42.770;23.400;2024-03-02T03:22:29;45.35;;;24.45;;
32196;SDS011;18697;42.770;23.400;2024-03-02T03:24:56;48.50;;;26.33;;
32196;SDS011;18697;42.770;23.400;2024-03-02T03:27:21;48.58;;;24.25;;
32196;SDS011;18697;42.770;23.400;2024-03-02T03:29:46;44.85;;;24.70;;
32196;SDS011;18697;42.770;23.400;2024-03-02T03:32:12;46.13;;;24.05;;
32196;SDS011;18697;42.770;23.400;2024-03-02T03:34:37;46.55;;;24.95;;
32196;SDS011;18697;42.770;23.400;2024-03-02T03:37:03;50.75;;;25.08;;
32196;SDS011;18697;42.770;23.400;2024-03-02T03:39:28;48.78;;;26.30;;
32196;SDS011;18697;42.770;23.400;2024-03-02T03:41:54;46.28;;;25.02;;
32196;SDS011;18697;42.770;23.400;2024-03-02T03:44:19;43.33;;;23.45;;
32196;SDS011;18697;42.770;23.400;2024-03-02T03:46:45;46.88;;;25.48;;
32196;SDS011;18697;42.770;23.400;2024-03-02T03:49:10;49.75;;;27.48;;
32196;SDS011;18697;42.770;23.400;2024-03-02T03:51:35;49.72;;;26.67;;
32196;SDS011;18697;42.770;23.400;2024-03-02T03:54:01;49.25;;;24.80;;
32196;SDS011;18697;42.770;23.400;2024-03-02T03:56:26;45.28;;;25.50;;
32196;SDS011;18697;42.770;23.400;2024-03-02T03:58:52;45.65;;;23.20;;
32196;SDS011;18697;42.770;23.400;2024-03-02T04:01:17;45.78;;;25.10;;
32196;SDS011;18697;42.770;23.400;2024-03-02T04:03:43;46.17;;;24.00;;
32196;SDS011;18697;42.770;23.400;2024-03-02T04:06:08;47.33;;;24.95;;
32196;SDS011;18697;42.770;23.400;2024-03-02T04:08:33;44.90;;;25.30;;
32196;SDS011;18697;42.770;23.400;2024-03-02T04:10:59;50.70;;;24.60;;
32196;SDS011;18697;42.770;23.400;2024-03-02T04:13:24;48.80;;;25.55;;
32196;SDS011;18697;42.770;23.400;2024-03-02T04:15:49;53.75;;;28.08;;
32196;SDS011;18697;42.770;23.400;2024-03-02T04:18:15;47.40;;;25.35;;
32196;SDS011;18697;42.770;23.400;2024-03-02T04:20:41;62.65;;;28.55;;
32196;SDS011;18697;42.770;23.400;2024-03-02T04:23:06;64.70;;;30.85;;
32196;SDS011;18697;42.770;23.400;2024-03-02T04:25:32;61.53;;;28.98;;
32196;SDS011;18697;42.770;23.400;2024-03-02T04:27:58;82.57;;;37.83;;
32196;SDS011;18697;42.770;23.400;2024-03-02T04:30:23;82.28;;;36.67;;
32196;SDS011;18697;42.770;23.400;2024-03-02T04:32:48;74.35;;;35.85;;
32196;SDS011;18697;42.770;23.400;2024-03-02T04:35:14;62.08;;;29.83;;
32196;SDS011;18697;42.770;23.400;2024-03-02T04:37:39;60.90;;;30.58;;
32196;SDS011;18697;42.770;23.400;2024-03-02T04:40:05;58.05;;;30.50;;
32196;SDS011;18697;42.770;23.400;2024-03-02T04:42:33;57.88;;;29.30;;
32196;SDS011;18697;42.770;23.400;2024-03-02T04:44:59;52.78;;;26.25;;
32196;SDS011;18697;42.770;23.400;2024-03-02T04:47:24;55.25;;;27.58;;
32196;SDS011;18697;42.770;23.400;2024-03-02T04:49:50;54.58;;;27.73;;
32196;SDS011;18697;42.770;23.400;2024-03-02T04:52:15;56.00;;;29.10;;
32196;SDS011;18697;42.770;23.400;2024-03-02T04:54:41;70.75;;;37.00;;
32196;SDS011;18697;42.770;23.400;2024-03-02T04:57:25;53.53;;;28.60;;
32196;SDS011;18697;42.770;23.400;2024-03-02T04:59:50;58.58;;;29.75;;
32196;SDS011;18697;42.770;23.400;2024-03-02T05:02:15;68.68;;;33.40;;
32196;SDS011;18697;42.770;23.400;2024-03-02T05:04:41;109.93;;;50.20;;
32196;SDS011;18697;42.770;23.400;2024-03-02T05:07:07;56.22;;;29.25;;
32196;SDS011;18697;42.770;23.400;2024-03-02T05:09:32;59.97;;;28.45;;
32196;SDS011;18697;42.770;23.400;2024-03-02T05:11:58;57.97;;;30.05;;
32196;SDS011;18697;42.770;23.400;2024-03-02T05:14:41;61.25;;;29.83;;
32196;SDS011;18697;42.770;23.400;2024-03-02T05:17:07;56.97;;;28.17;;
32196;SDS011;18697;42.770;23.400;2024-03-02T05:19:32;55.05;;;29.08;;
32196;SDS011;18697;42.770;23.400;2024-03-02T05:21:57;64.25;;;29.60;;
32196;SDS011;18697;42.770;23.400;2024-03-02T05:24:23;63.33;;;30.23;;
32196;SDS011;18697;42.770;23.400;2024-03-02T05:26:48;60.05;;;29.15;;
32196;SDS011;18697;42.770;23.400;2024-03-02T05:29:14;58.10;;;28.77;;
32196;SDS011;18697;42.770;23.400;2024-03-02T05:31:40;64.65;;;32.38;;
32196;SDS011;18697;42.770;23.400;2024-03-02T05:34:05;90.35;;;44.92;;
32196;SDS011;18697;42.770;23.400;2024-03-02T05:36:31;78.25;;;35.70;;
32196;SDS011;18697;42.770;23.400;2024-03-02T05:38:57;77.72;;;37.08;;
32196;SDS011;18697;42.770;23.400;2024-03-02T05:41:22;68.70;;;32.92;;
32196;SDS011;18697;42.770;23.400;2024-03-02T05:43:47;80.53;;;38.28;;
32196;SDS011;18697;42.770;23.400;2024-03-02T05:46:13;78.03;;;37.35;;
32196;SDS011;18697;42.770;23.400;2024-03-02T05:48:38;76.85;;;35.20;;
32196;SDS011;18697;42.770;23.400;2024-03-02T05:51:04;82.18;;;39.70;;
32196;SDS011;18697;42.770;23.400;2024-03-02T05:53:29;71.45;;;35.28;;
32196;SDS011;18697;42.770;23.400;2024-03-02T05:55:54;67.97;;;32.30;;
32196;SDS011;18697;42.770;23.400;2024-03-02T05:58:21;78.18;;;36.90;;
32196;SDS011;18697;42.770;23.400;2024-03-02T06:01:03;103.18;;;44.45;;
32196;SDS011;18697;42.770;23.400;2024-03-02T06:03:29;98.47;;;44.53;;
32196;SDS011;18697;42.770;23.400;2024-03-02T06:05:55;109.65;;;47.38;;
32196;SDS011;18697;42.770;23.400;2024-03-02T06:08:20;101.20;;;46.95;;
32196;SDS011;18697;42.770;23.400;2024-03-02T06:10:46;99.28;;;46.97;;
32196;SDS011;18697;42.770;23.400;2024-03-02T06:13:11;130.20;;;54.30;;
32196;SDS011;18697;42.770;23.400;2024-03-02T06:15:36;100.60;;;44.90;;
32196;SDS011;18697;42.770;23.400;2024-03-02T06:18:02;92.50;;;42.42;;
32196;SDS011;18697;42.770;23.400;2024-03-02T06:20:27;75.95;;;35.10;;
32196;SDS011;18697;42.770;23.400;2024-03-02T06:22:55;56.25;;;29.17;;
32196;SDS011;18697;42.770;23.400;2024-03-02T06:25:21;56.80;;;29.58;;
32196;SDS011;18697;42.770;23.400;2024-03-02T06:27:46;55.85;;;30.33;;
32196;SDS011;18697;42.770;23.400;2024-03-02T06:30:12;60.97;;;31.05;;
32196;SDS011;18697;42.770;23.400;2024-03-02T06:32:37;71.80;;;35.10;;
32196;SDS011;18697;42.770;23.400;2024-03-02T06:35:03;65.25;;;32.47;;
32196;SDS011;18697;42.770;23.400;2024-03-02T06:37:29;71.45;;;36.70;;
32196;SDS011;18697;42.770;23.400;2024-03-02T06:39:55;99.85;;;46.53;;
32196;SDS011;18697;42.770;23.400;2024-03-02T06:42:20;96.97;;;46.72;;
32196;SDS011;18697;42.770;23.400;2024-03-02T06:44:45;84.95;;;41.25;;
32196;SDS011;18697;42.770;23.400;2024-03-02T06:47:11;94.57;;;45.20;;
32196;SDS011;18697;42.770;23.400;2024-03-02T06:49:36;103.68;;;49.80;;
32196;SDS011;18697;42.770;23.400;2024-03-02T06:52:02;84.50;;;41.20;;
32196;SDS011;18697;42.770;23.400;2024-03-02T06:54:27;76.32;;;37.13;;
32196;SDS011;18697;42.770;23.400;2024-03-02T06:56:52;74.05;;;36.65;;
32196;SDS011;18697;42.770;23.400;2024-03-02T06:59:18;79.07;;;39.78;;
32196;SDS011;18697;42.770;23.400;2024-03-02T07:01:43;76.85;;;36.65;;
32196;SDS011;18697;42.770;23.400;2024-03-02T07:04:08;72.43;;;35.90;;
32196;SDS011;18697;42.770;23.400;2024-03-02T07:06:34;61.35;;;30.02;;
32196;SDS011;18697;42.770;23.400;2024-03-02T07:08:59;62.75;;;32.60;;
32196;SDS011;18697;42.770;23.400;2024-03-02T07:11:24;56.88;;;28.83;;
32196;SDS011;18697;42.770;23.400;2024-03-02T07:13:50;63.78;;;32.72;;
32196;SDS011;18697;42.770;23.400;2024-03-02T07:16:15;65.57;;;32.55;;
32196;SDS011;18697;42.770;23.400;2024-03-02T07:18:53;127.10;;;56.92;;
32196;SDS011;18697;42.770;23.400;2024-03-02T07:21:20;150.43;;;49.28;;
32196;SDS011;18697;42.770;23.400;2024-03-02T07:23:47;138.25;;;52.33;;
32196;SDS011;18697;42.770;23.400;2024-03-02T07:26:13;114.57;;;57.22;;
32196;SDS011;18697;42.770;23.400;2024-03-02T07:28:40;65.95;;;32.13;;
32196;SDS011;18697;42.770;23.400;2024-03-02T07:31:06;65.30;;;33.03;;
32196;SDS011;18697;42.770;23.400;2024-03-02T07:33:32;65.88;;;30.92;;
32196;SDS011;18697;42.770;23.400;2024-03-02T07:35:58;66.18;;;34.22;;
32196;SDS011;18697;42.770;23.400;2024-03-02T07:38:25;52.50;;;28.42;;
32196;SDS011;18697;42.770;23.400;2024-03-02T07:40:52;59.05;;;29.70;;
32196;SDS011;18697;42.770;23.400;2024-03-02T07:43:18;64.63;;;30.20;;
32196;SDS011;18697;42.770;23.400;2024-03-02T07:45:44;54.83;;;26.75;;
32196;SDS011;18697;42.770;23.400;2024-03-02T07:48:10;54.13;;;26.73;;
32196;SDS011;18697;42.770;23.400;2024-03-02T07:50:35;51.05;;;26.02;;
32196;SDS011;18697;42.770;23.400;2024-03-02T07:53:02;72.05;;;31.42;;
32196;SDS011;18697;42.770;23.400;2024-03-02T07:55:28;66.68;;;29.83;;
32196;SDS011;18697;42.770;23.400;2024-03-02T07:57:54;58.05;;;30.65;;
32196;SDS011;18697;42.770;23.400;2024-03-02T08:00:20;61.85;;;30.33;;
32196;SDS011;18697;42.770;23.400;2024-03-02T08:02:45;49.70;;;25.38;;
32196;SDS011;18697;42.770;23.400;2024-03-02T08:05:11;51.45;;;26.88;;
32196;SDS011;18697;42.770;23.400;2024-03-02T08:07:36;52.65;;;25.77;;
32196;SDS011;18697;42.770;23.400;2024-03-02T08:10:02;43.42;;;23.80;;
32196;SDS011;18697;42.770;23.400;2024-03-02T08:12:27;42.15;;;22.73;;
32196;SDS011;18697;42.770;23.400;2024-03-02T08:14:53;50.00;;;24.88;;
32196;SDS011;18697;42.770;23.400;2024-03-02T08:17:18;43.92;;;23.63;;
32196;SDS011;18697;42.770;23.400;2024-03-02T08:19:44;47.22;;;24.08;;
32196;SDS011;18697;42.770;23.400;2024-03-02T08:22:09;48.58;;;25.65;;
32196;SDS011;18697;42.770;23.400;2024-03-02T08:24:35;46.50;;;24.75;;
32196;SDS011;18697;42.770;23.400;2024-03-02T08:27:01;45.58;;;22.70;;
32196;SDS011;18697;42.770;23.400;2024-03-02T08:29:27;54.97;;;25.92;;
32196;SDS011;18697;42.770;23.400;2024-03-02T08:31:52;48.92;;;25.17;;
32196;SDS011;18697;42.770;23.400;2024-03-02T08:34:18;44.03;;;24.55;;
32196;SDS011;18697;42.770;23.400;2024-03-02T08:36:43;54.20;;;27.70;;
32196;SDS011;18697;42.770;23.400;2024-03-02T08:39:09;55.50;;;27.55;;
32196;SDS011;18697;42.770;23.400;2024-03-02T08:41:47;58.33;;;29.45;;
32196;SDS011;18697;42.770;23.400;2024-03-02T08:44:13;52.40;;;25.27;;
32196;SDS011;18697;42.770;23.400;2024-03-02T08:46:39;44.22;;;23.33;;
32196;SDS011;18697;42.770;23.400;2024-03-02T08:49:04;43.33;;;23.35;;
32196;SDS011;18697;42.770;23.400;2024-03-02T08:51:30;41.72;;;22.17;;
32196;SDS011;18697;42.770;23.400;2024-03-02T08:53:56;55.97;;;27.67;;
32196;SDS011;18697;42.770;23.400;2024-03-02T08:56:22;60.33;;;31.05;;
32196;SDS011;18697;42.770;23.400;2024-03-02T08:58:49;48.60;;;25.30;;
32196;SDS011;18697;42.770;23.400;2024-03-02T09:01:15;44.75;;;24.42;;
32196;SDS011;18697;42.770;23.400;2024-03-02T09:03:41;47.70;;;24.75;;
32196;SDS011;18697;42.770;23.400;2024-03-02T09:06:09;44.50;;;24.27;;
32196;SDS011;18697;42.770;23.400;2024-03-02T09:08:35;46.13;;;23.40;;
32196;SDS011;18697;42.770;23.400;2024-03-02T09:11:01;83.97;;;35.28;;
32196;SDS011;18697;42.770;23.400;2024-03-02T09:13:31;68.35;;;33.95;;
32196;SDS011;18697;42.770;23.400;2024-03-02T09:15:58;59.25;;;27.63;;
32196;SDS011;18697;42.770;23.400;2024-03-02T09:18:23;41.17;;;22.08;;
32196;SDS011;18697;42.770;23.400;2024-03-02T09:20:49;48.47;;;23.77;;
32196;SDS011;18697;42.770;23.400;2024-03-02T09:23:14;77.45;;;33.08;;
32196;SDS011;18697;42.770;23.400;2024-03-02T09:25:39;50.85;;;26.02;;
32196;SDS011;18697;42.770;23.400;2024-03-02T09:28:05;50.58;;;25.00;;
32196;SDS011;18697;42.770;23.400;2024-03-02T09:30:30;41.25;;;22.20;;
32196;SDS011;18697;42.770;23.400;2024-03-02T09:32:56;43.40;;;22.77;;
32196;SDS011;18697;42.770;23.400;2024-03-02T09:35:21;41.60;;;22.02;;
32196;SDS011;18697;42.770;23.400;2024-03-02T09:37:46;62.78;;;28.50;;
32196;SDS011;18697;42.770;23.400;2024-03-02T09:40:13;68.82;;;31.33;;
32196;SDS011;18697;42.770;23.400;2024-03-02T09:42:38;84.97;;;36.88;;
32196;SDS011;18697;42.770;23.400;2024-03-02T09:45:05;117.43;;;49.90;;
32196;SDS011;18697;42.770;23.400;2024-03-02T09:47:31;42.70;;;24.48;;
32196;SDS011;18697;42.770;23.400;2024-03-02T09:49:57;56.60;;;27.10;;
32196;SDS011;18697;42.770;23.400;2024-03-02T09:52:22;56.20;;;27.27;;
32196;SDS011;18697;42.770;23.400;2024-03-02T09:54:48;82.85;;;37.30;;
32196;SDS011;18697;42.770;23.400;2024-03-02T09:57:14;95.75;;;44.05;;
32196;SDS011;18697;42.770;23.400;2024-03-02T09:59:40;59.33;;;29.48;;
32196;SDS011;18697;42.770;23.400;2024-03-02T10:02:05;45.72;;;25.13;;
32196;SDS011;18697;42.770;23.400;2024-03-02T10:04:32;64.65;;;31.33;;
32196;SDS011;18697;42.770;23.400;2024-03-02T10:09:36;69.75;;;34.95;;
32196;SDS011;18697;42.770;23.400;2024-03-02T10:12:05;61.03;;;30.27;;
32196;SDS011;18697;42.770;23.400;2024-03-02T10:14:32;56.47;;;29.80;;
32196;SDS011;18697;42.770;23.400;2024-03-02T10:17:04;47.20;;;23.48;;
32196;SDS011;18697;42.770;23.400;2024-03-02T10:19:31;40.72;;;23.27;;
32196;SDS011;18697;42.770;23.400;2024-03-02T10:22:02;54.45;;;27.65;;
32196;SDS011;18697;42.770;23.400;2024-03-02T10:24:36;50.55;;;26.23;;
32196;SDS011;18697;42.770;23.400;2024-03-02T10:27:18;60.67;;;30.85;;
32196;SDS011;18697;42.770;23.400;2024-03-02T10:29:48;44.25;;;24.50;;
32196;SDS011;18697;42.770;23.400;2024-03-02T10:32:14;77.28;;;33.63;;
32196;SDS011;18697;42.770;23.400;2024-03-02T10:34:41;94.53;;;40.20;;
32196;SDS011;18697;42.770;23.400;2024-03-02T10:37:07;46.53;;;25.27;;
32196;SDS011;18697;42.770;23.400;2024-03-02T10:39:36;53.13;;;29.92;;
32196;SDS011;18697;42.770;23.400;2024-03-02T10:42:04;57.88;;;29.73;;
32196;SDS011;18697;42.770;23.400;2024-03-02T10:44:31;38.58;;;20.35;;
32196;SDS011;18697;42.770;23.400;2024-03-02T10:46:58;43.10;;;24.92;;
32196;SDS011;18697;42.770;23.400;2024-03-02T10:49:30;45.70;;;26.85;;
32196;SDS011;18697;42.770;23.400;2024-03-02T10:51:57;43.45;;;23.50;;
32196;SDS011;18697;42.770;23.400;2024-03-02T10:54:23;43.67;;;22.35;;
32196;SDS011;18697;42.770;23.400;2024-03-02T10:56:52;37.80;;;21.25;;
32196;SDS011;18697;42.770;23.400;2024-03-02T10:59:32;34.00;;;18.50;;
32196;SDS011;18697;42.770;23.400;2024-03-02T11:02:03;30.70;;;18.08;;
32196;SDS011;18697;42.770;23.400;2024-03-02T11:04:32;32.25;;;18.58;;
32196;SDS011;18697;42.770;23.400;2024-03-02T11:07:04;39.05;;;21.05;;
32196;SDS011;18697;42.770;23.400;2024-03-02T11:09:33;38.65;;;22.02;;
32196;SDS011;18697;42.770;23.400;2024-03-02T11:12:11;38.53;;;20.70;;
32196;SDS011;18697;42.770;23.400;2024-03-02T11:14:41;30.25;;;17.45;;
32196;SDS011;18697;42.770;23.400;2024-03-02T11:17:10;34.13;;;20.67;;
32196;SDS011;18697;42.770;23.400;2024-03-02T11:19:38;34.40;;;20.10;;
32196;SDS011;18697;42.770;23.400;2024-03-02T11:22:05;33.00;;;19.77;;
32196;SDS011;18697;42.770;23.400;2024-03-02T11:24:31;35.53;;;22.13;;
32196;SDS011;18697;42.770;23.400;2024-03-02T11:27:00;31.17;;;18.48;;
32196;SDS011;18697;42.770;23.400;2024-03-02T11:32:15;33.88;;;18.58;;
32196;SDS011;18697;42.770;23.400;2024-03-02T11:34:42;35.80;;;20.33;;
32196;SDS011;18697;42.770;23.400;2024-03-02T11:37:14;27.08;;;15.75;;
32196;SDS011;18697;42.770;23.400;2024-03-02T11:39:40;30.92;;;17.15;;
32196;SDS011;18697;42.770;23.400;2024-03-02T11:42:07;30.02;;;17.75;;
32196;SDS011;18697;42.770;23.400;2024-03-02T11:44:34;29.67;;;16.38;;
32196;SDS011;18697;42.770;23.400;2024-03-02T11:47:01;31.73;;;18.38;;
32196;SDS011;18697;42.770;23.400;2024-03-02T11:49:39;32.70;;;19.17;;
32196;SDS011;18697;42.770;23.400;2024-03-02T11:52:06;33.88;;;20.58;;
32196;SDS011;18697;42.770;23.400;2024-03-02T11:54:34;28.65;;;16.63;;
32196;SDS011;18697;42.770;23.400;2024-03-02T11:57:01;29.58;;;16.17;;
32196;SDS011;18697;42.770;23.400;2024-03-02T11:59:28;26.73;;;16.25;;
32196;SDS011;18697;42.770;23.400;2024-03-02T12:01:54;24.75;;;15.80;;
32196;SDS011;18697;42.770;23.400;2024-03-02T12:04:20;24.65;;;15.02;;
32196;SDS011;18697;42.770;23.400;2024-03-02T12:06:47;39.45;;;18.40;;
32196;SDS011;18697;42.770;23.400;2024-03-02T12:09:19;30.38;;;16.45;;
32196;SDS011;18697;42.770;23.400;2024-03-02T12:11:45;20.02;;;12.88;;
32196;SDS011;18697;42.770;23.400;2024-03-02T12:14:11;30.60;;;16.40;;
32196;SDS011;18697;42.770;23.400;2024-03-02T12:16:43;25.90;;;14.65;;
32196;SDS011;18697;42.770;23.400;2024-03-02T12:19:12;42.22;;;20.55;;
32196;SDS011;18697;42.770;23.400;2024-03-02T12:21:38;28.35;;;15.80;;
32196;SDS011;18697;42.770;23.400;2024-03-02T12:24:03;25.50;;;15.00;;
32196;SDS011;18697;42.770;23.400;2024-03-02T12:26:29;24.15;;;15.60;;
32196;SDS011;18697;42.770;23.400;2024-03-02T12:28:54;22.33;;;13.95;;
32196;SDS011;18697;42.770;23.400;2024-03-02T12:31:20;25.45;;;16.40;;
32196;SDS011;18697;42.770;23.400;2024-03-02T12:36:12;27.05;;;15.23;;
32196;SDS011;18697;42.770;23.400;2024-03-02T12:38:43;42.17;;;21.50;;
32196;SDS011;18697;42.770;23.400;2024-03-02T12:41:09;45.22;;;22.48;;
32196;SDS011;18697;42.770;23.400;2024-03-02T12:43:34;23.10;;;14.52;;
32196;SDS011;18697;42.770;23.400;2024-03-02T12:45:59;20.02;;;13.57;;
32196;SDS011;18697;42.770;23.400;2024-03-02T12:48:25;22.40;;;14.30;;
32196;SDS011;18697;42.770;23.400;2024-03-02T12:50:51;36.42;;;19.13;;
32196;SDS011;18697;42.770;23.400;2024-03-02T12:53:16;18.63;;;11.85;;
32196;SDS011;18697;42.770;23.400;2024-03-02T12:55:42;20.92;;;14.00;;
32196;SDS011;18697;42.770;23.400;2024-03-02T12:58:15;24.88;;;14.68;;
32196;SDS011;18697;42.770;23.400;2024-03-02T13:00:41;21.27;;;13.68;;
32196;SDS011;18697;42.770;23.400;2024-03-02T13:03:07;18.05;;;12.68;;
32196;SDS011;18697;42.770;23.400;2024-03-02T13:05:32;19.92;;;13.77;;
32196;SDS011;18697;42.770;23.400;2024-03-02T13:07:58;23.67;;;14.88;;
32196;SDS011;18697;42.770;23.400;2024-03-02T13:10:24;27.00;;;16.75;;
32196;SDS011;18697;42.770;23.400;2024-03-02T13:12:50;26.10;;;16.27;;
32196;SDS011;18697;42.770;23.400;2024-03-02T13:15:15;52.33;;;28.40;;
32196;SDS011;18697;42.770;23.400;2024-03-02T13:17:41;24.92;;;14.52;;
32196;SDS011;18697;42.770;23.400;2024-03-02T13:20:06;23.77;;;13.10;;
32196;SDS011;18697;42.770;23.400;2024-03-02T13:22:35;23.15;;;14.02;;
32196;SDS011;18697;42.770;23.400;2024-03-02T13:25:01;24.65;;;14.63;;
32196;SDS011;18697;42.770;23.400;2024-03-02T13:27:29;27.38;;;13.73;;
32196;SDS011;18697;42.770;23.400;2024-03-02T13:29:55;26.30;;;13.85;;
32196;SDS011;18697;42.770;23.400;2024-03-02T13:32:20;23.33;;;14.15;;
32196;SDS011;18697;42.770;23.400;2024-03-02T13:34:48;20.25;;;13.02;;
32196;SDS011;18697;42.770;23.400;2024-03-02T13:37:14;22.85;;;14.93;;
32196;SDS011;18697;42.770;23.400;2024-03-02T13:39:39;22.15;;;13.73;;
32196;SDS011;18697;42.770;23.400;2024-03-02T13:42:10;23.77;;;14.18;;
32196;SDS011;18697;42.770;23.400;2024-03-02T13:44:37;21.02;;;12.95;;
32196;SDS011;18697;42.770;23.400;2024-03-02T13:47:03;23.98;;;13.73;;
32196;SDS011;18697;42.770;23.400;2024-03-02T13:49:29;21.33;;;12.93;;
32196;SDS011;18697;42.770;23.400;2024-03-02T13:52:05;23.10;;;13.00;;
32196;SDS011;18697;42.770;23.400;2024-03-02T13:54:45;29.42;;;18.73;;
32196;SDS011;18697;42.770;23.400;2024-03-02T13:59:38;24.77;;;16.20;;
32196;SDS011;18697;42.770;23.400;2024-03-02T14:02:04;21.42;;;14.00;;
32196;SDS011;18697;42.770;23.400;2024-03-02T14:04:33;20.33;;;13.43;;
32196;SDS011;18697;42.770;23.400;2024-03-02T14:06:59;24.13;;;16.35;;
32196;SDS011;18697;42.770;23.400;2024-03-02T14:09:25;17.20;;;9.98;;
32196;SDS011;18697;42.770;23.400;2024-03-02T14:11:52;16.20;;;10.38;;
32196;SDS011;18697;42.770;23.400;2024-03-02T14:14:17;14.85;;;9.27;;
32196;SDS011;18697;42.770;23.400;2024-03-02T14:16:43;17.40;;;9.80;;
32196;SDS011;18697;42.770;23.400;2024-03-02T14:19:09;17.38;;;10.93;;
32196;SDS011;18697;42.770;23.400;2024-03-02T14:21:34;14.68;;;9.48;;